Alton, NH

1:49 PM EDT on April 27, 2015 (GMT -0400)
Alton Mountain | | Change Station
CLOSE
Current Station
Personal Weather Station
Location: Alton, NH
Elevation: 958 ft
Nearby Weather Stations

Elev 958 ft 43.49 °N, 71.29 °W | Updated 17 seconds ago

Overcast
Overcast
52.2 °F
Feels Like 52.2 °F
N
8.9
Wind Variable Wind from NE

Today
High -- | Low -- °F
--% Chance of Precip.
Yesterday
High -- | Low -- °F
Precip. -- in
5:43 AM 7:42 PM
Waxing Gibbous, 66% visible
Pressure 29.55 in
Visibility 10.0 miles
Clouds Scattered Clouds 4900 ft
Overcast 12000 ft
Dew Point 37 °F
Humidity 57%
Rainfall 0.00 in
Snow Depth Not available.
UV 3 out of 12
Pollen 8.70 out of 12
Air Quality Not available.
Flu Activity Regional
METAR KLCI 271735Z AUTO 33013G20KT 10SM SCT049 OVC120 12/01 A2955 RMK AO1

More Conditions Fewer Conditions

Pressure 29.55 in
Visibility 10.0 miles
Clouds Scattered Clouds 4900 ft
Overcast 12000 ft
Dew Point 37 °F
Humidity 57%
Rainfall 0.00 in
Snow Depth Not available.
UV 3 out of 12
Pollen 8.70 out of 12
Air Quality Not available.
Flu Activity Regional
METAR KLCI 271735Z AUTO 33013G20KT 10SM SCT049 OVC120 12/01 A2955 RMK AO1

More Conditions Fewer Conditions

10-Day Weather Forecast

Almanac

Astronomy

Apr. 27, 2015 Rise Set
Actual Time
Civil Twilight
Nautical Twilight
Astronomical Twilight
Moon
Length of Visible Light
Length of Day
Tomorrow will be .
, % of the Moon is Illuminated

Today's Extremes

State Highs State Lows

Community

WunderPhotos

Upload Photos

1,817,367 photos uploaded!

WunderBlogs® & News

Nearby

Air Quality

  Air Quality AQ Index Pollutant
Not available.

Snow Depth

Station Depth Elevation

Earthquake Activity

City Distance Mag. Time & Date
Minimum magnitude displayed is 2.5.

Coastal Water Temperatures

Place Temperature

Stations

Nearby Weather Stations

Station Location Temp. Windchill Dew Point Humidity Wind Precip. Elev Updated Type